sensor_id;sensor_type;location;lat;lon;timestamp;temperature;humidity
25732;DHT22;13585;50.864;4.406;2023-02-12T00:00:40;15.40;79.50
25732;DHT22;13585;50.864;4.406;2023-02-12T00:03:06;15.40;79.50
25732;DHT22;13585;50.864;4.406;2023-02-12T00:05:32;15.40;79.50
25732;DHT22;13585;50.864;4.406;2023-02-12T00:07:57;15.40;79.40
25732;DHT22;13585;50.864;4.406;2023-02-12T00:10:23;15.40;79.30
25732;DHT22;13585;50.864;4.406;2023-02-12T00:12:49;15.30;79.20
25732;DHT22;13585;50.864;4.406;2023-02-12T00:15:15;15.40;79.30
25732;DHT22;13585;50.864;4.406;2023-02-12T00:17:40;15.40;79.20
25732;DHT22;13585;50.864;4.406;2023-02-12T00:20:06;15.40;79.20
25732;DHT22;13585;50.864;4.406;2023-02-12T00:22:32;15.40;79.10
25732;DHT22;13585;50.864;4.406;2023-02-12T00:24:58;15.40;79.10
25732;DHT22;13585;50.864;4.406;2023-02-12T00:27:24;15.40;79.80
25732;DHT22;13585;50.864;4.406;2023-02-12T00:29:49;15.40;79.00
25732;DHT22;13585;50.864;4.406;2023-02-12T00:32:15;15.40;79.00
25732;DHT22;13585;50.864;4.406;2023-02-12T00:34:45;15.40;79.00
25732;DHT22;13585;50.864;4.406;2023-02-12T00:37:11;15.40;78.90
25732;DHT22;13585;50.864;4.406;2023-02-12T00:39:36;15.40;78.90
25732;DHT22;13585;50.864;4.406;2023-02-12T00:42:03;15.30;78.80
25732;DHT22;13585;50.864;4.406;2023-02-12T00:44:28;15.40;78.80
25732;DHT22;13585;50.864;4.406;2023-02-12T00:46:54;15.40;78.70
25732;DHT22;13585;50.864;4.406;2023-02-12T00:49:21;15.40;78.70
25732;DHT22;13585;50.864;4.406;2023-02-12T00:51:47;15.40;78.70
25732;DHT22;13585;50.864;4.406;2023-02-12T00:54:13;15.40;78.70
25732;DHT22;13585;50.864;4.406;2023-02-12T00:56:38;15.40;78.60
25732;DHT22;13585;50.864;4.406;2023-02-12T00:59:04;15.30;78.50
25732;DHT22;13585;50.864;4.406;2023-02-12T01:01:30;15.40;78.50
25732;DHT22;13585;50.864;4.406;2023-02-12T01:03:55;15.30;78.50
25732;DHT22;13585;50.864;4.406;2023-02-12T01:06:21;15.30;78.40
25732;DHT22;13585;50.864;4.406;2023-02-12T01:08:50;15.30;78.30
25732;DHT22;13585;50.864;4.406;2023-02-12T01:11:16;15.30;78.30
25732;DHT22;13585;50.864;4.406;2023-02-12T01:13:41;15.30;78.30
25732;DHT22;13585;50.864;4.406;2023-02-12T01:16:16;15.30;78.20
25732;DHT22;13585;50.864;4.406;2023-02-12T01:18:41;15.30;78.40
25732;DHT22;13585;50.864;4.406;2023-02-12T01:21:12;15.40;78.20
25732;DHT22;13585;50.864;4.406;2023-02-12T01:23:39;15.30;78.10
25732;DHT22;13585;50.864;4.406;2023-02-12T01:26:05;15.30;78.10
25732;DHT22;13585;50.864;4.406;2023-02-12T01:28:32;15.30;78.00
25732;DHT22;13585;50.864;4.406;2023-02-12T01:30:58;15.30;78.00
25732;DHT22;13585;50.864;4.406;2023-02-12T01:33:23;15.30;78.00
25732;DHT22;13585;50.864;4.406;2023-02-12T01:35:49;15.30;77.90
25732;DHT22;13585;50.864;4.406;2023-02-12T01:38:15;15.30;77.80
25732;DHT22;13585;50.864;4.406;2023-02-12T01:40:40;15.30;77.80
25732;DHT22;13585;50.864;4.406;2023-02-12T01:43:11;15.30;77.80
25732;DHT22;13585;50.864;4.406;2023-02-12T01:45:44;15.30;77.80
25732;DHT22;13585;50.864;4.406;2023-02-12T01:48:12;15.30;77.80
25732;DHT22;13585;50.864;4.406;2023-02-12T01:50:38;15.30;77.60
25732;DHT22;13585;50.864;4.406;2023-02-12T01:53:05;15.30;77.60
25732;DHT22;13585;50.864;4.406;2023-02-12T01:55:31;15.30;77.60
25732;DHT22;13585;50.864;4.406;2023-02-12T01:57:56;15.30;77.60
25732;DHT22;13585;50.864;4.406;2023-02-12T02:00:23;15.30;77.60
25732;DHT22;13585;50.864;4.406;2023-02-12T02:02:56;15.30;77.40
25732;DHT22;13585;50.864;4.406;2023-02-12T02:07:57;15.30;77.50
25732;DHT22;13585;50.864;4.406;2023-02-12T02:10:23;15.30;77.40
25732;DHT22;13585;50.864;4.406;2023-02-12T02:12:49;15.30;77.40
25732;DHT22;13585;50.864;4.406;2023-02-12T02:15:34;15.30;77.30
25732;DHT22;13585;50.864;4.406;2023-02-12T02:18:11;15.30;77.20
25732;DHT22;13585;50.864;4.406;2023-02-12T02:20:48;15.30;77.20
25732;DHT22;13585;50.864;4.406;2023-02-12T02:31:52;15.30;77.00
25732;DHT22;13585;50.864;4.406;2023-02-12T02:37:18;15.30;77.00
25732;DHT22;13585;50.864;4.406;2023-02-12T02:39:56;15.20;77.00
25732;DHT22;13585;50.864;4.406;2023-02-12T02:45:05;15.20;77.00
25732;DHT22;13585;50.864;4.406;2023-02-12T02:47:40;15.20;76.90
25732;DHT22;13585;50.864;4.406;2023-02-12T02:50:13;15.20;76.90
25732;DHT22;13585;50.864;4.406;2023-02-12T02:52:51;15.20;76.90
25732;DHT22;13585;50.864;4.406;2023-02-12T02:55:21;15.20;77.60
25732;DHT22;13585;50.864;4.406;2023-02-12T02:57:57;15.20;76.80
25732;DHT22;13585;50.864;4.406;2023-02-12T03:00:43;15.20;76.70
25732;DHT22;13585;50.864;4.406;2023-02-12T03:03:26;15.30;76.70
25732;DHT22;13585;50.864;4.406;2023-02-12T03:05:58;15.20;76.60
25732;DHT22;13585;50.864;4.406;2023-02-12T03:08:35;15.20;76.50
25732;DHT22;13585;50.864;4.406;2023-02-12T03:11:25;15.20;76.60
25732;DHT22;13585;50.864;4.406;2023-02-12T03:16:35;15.20;76.40
25732;DHT22;13585;50.864;4.406;2023-02-12T03:21:39;15.20;76.30
25732;DHT22;13585;50.864;4.406;2023-02-12T03:24:47;15.20;76.40
25732;DHT22;13585;50.864;4.406;2023-02-12T03:27:26;15.20;76.40
25732;DHT22;13585;50.864;4.406;2023-02-12T03:29:53;15.30;76.30
25732;DHT22;13585;50.864;4.406;2023-02-12T03:35:34;15.20;76.30
25732;DHT22;13585;50.864;4.406;2023-02-12T03:40:58;15.20;76.10
25732;DHT22;13585;50.864;4.406;2023-02-12T03:47:26;15.20;76.20
25732;DHT22;13585;50.864;4.406;2023-02-12T03:50:11;15.20;76.10
25732;DHT22;13585;50.864;4.406;2023-02-12T03:52:37;15.20;76.00
25732;DHT22;13585;50.864;4.406;2023-02-12T03:55:04;15.20;75.90
25732;DHT22;13585;50.864;4.406;2023-02-12T03:57:40;15.20;75.90
25732;DHT22;13585;50.864;4.406;2023-02-12T04:00:11;15.20;75.90
25732;DHT22;13585;50.864;4.406;2023-02-12T04:02:37;15.20;75.90
25732;DHT22;13585;50.864;4.406;2023-02-12T04:05:07;15.20;75.80
25732;DHT22;13585;50.864;4.406;2023-02-12T04:07:34;15.20;75.80
25732;DHT22;13585;50.864;4.406;2023-02-12T04:10:00;15.20;76.50
25732;DHT22;13585;50.864;4.406;2023-02-12T04:12:56;15.20;75.70
25732;DHT22;13585;50.864;4.406;2023-02-12T04:18:48;15.20;75.60
25732;DHT22;13585;50.864;4.406;2023-02-12T04:24:31;15.20;75.50
25732;DHT22;13585;50.864;4.406;2023-02-12T04:32:40;15.30;75.50
25732;DHT22;13585;50.864;4.406;2023-02-12T04:35:22;15.20;75.40
25732;DHT22;13585;50.864;4.406;2023-02-12T04:37:56;15.20;75.50
25732;DHT22;13585;50.864;4.406;2023-02-12T04:40:23;15.20;75.40
25732;DHT22;13585;50.864;4.406;2023-02-12T04:42:50;15.20;75.40
25732;DHT22;13585;50.864;4.406;2023-02-12T04:45:23;15.20;75.30
25732;DHT22;13585;50.864;4.406;2023-02-12T04:47:49;15.20;75.30
25732;DHT22;13585;50.864;4.406;2023-02-12T04:50:15;15.20;75.20
25732;DHT22;13585;50.864;4.406;2023-02-12T04:52:40;15.20;75.20
25732;DHT22;13585;50.864;4.406;2023-02-12T04:55:06;15.20;75.20
25732;DHT22;13585;50.864;4.406;2023-02-12T04:57:32;15.20;75.10
25732;DHT22;13585;50.864;4.406;2023-02-12T04:59:58;15.20;75.10
25732;DHT22;13585;50.864;4.406;2023-02-12T05:02:23;15.20;75.10
25732;DHT22;13585;50.864;4.406;2023-02-12T05:04:49;15.20;75.00
25732;DHT22;13585;50.864;4.406;2023-02-12T05:07:15;15.20;75.00
25732;DHT22;13585;50.864;4.406;2023-02-12T05:09:41;15.20;74.90
25732;DHT22;13585;50.864;4.406;2023-02-12T05:12:07;15.20;74.90
25732;DHT22;13585;50.864;4.406;2023-02-12T05:14:32;15.20;74.90
25732;DHT22;13585;50.864;4.406;2023-02-12T05:16:58;15.20;74.90
25732;DHT22;13585;50.864;4.406;2023-02-12T05:19:23;15.20;74.80
25732;DHT22;13585;50.864;4.406;2023-02-12T05:21:49;15.20;74.80
25732;DHT22;13585;50.864;4.406;2023-02-12T05:24:15;15.20;74.80
25732;DHT22;13585;50.864;4.406;2023-02-12T05:26:41;15.20;74.70
25732;DHT22;13585;50.864;4.406;2023-02-12T05:29:07;15.20;74.70
25732;DHT22;13585;50.864;4.406;2023-02-12T05:31:33;15.20;74.70
25732;DHT22;13585;50.864;4.406;2023-02-12T05:33:58;15.20;74.70
25732;DHT22;13585;50.864;4.406;2023-02-12T05:36:24;15.20;74.60
25732;DHT22;13585;50.864;4.406;2023-02-12T05:38:52;15.20;74.50
25732;DHT22;13585;50.864;4.406;2023-02-12T05:41:20;15.20;74.50
25732;DHT22;13585;50.864;4.406;2023-02-12T05:43:46;15.20;74.40
25732;DHT22;13585;50.864;4.406;2023-02-12T05:46:13;15.20;74.40
25732;DHT22;13585;50.864;4.406;2023-02-12T05:48:39;15.20;74.40
25732;DHT22;13585;50.864;4.406;2023-02-12T05:51:11;15.20;74.40
25732;DHT22;13585;50.864;4.406;2023-02-12T05:53:38;15.20;74.40
25732;DHT22;13585;50.864;4.406;2023-02-12T05:58:32;15.20;74.40
25732;DHT22;13585;50.864;4.406;2023-02-12T06:00:58;15.20;74.30
25732;DHT22;13585;50.864;4.406;2023-02-12T06:03:23;15.20;74.30
25732;DHT22;13585;50.864;4.406;2023-02-12T06:05:50;15.20;74.30
25732;DHT22;13585;50.864;4.406;2023-02-12T06:08:16;15.20;74.30
25732;DHT22;13585;50.864;4.406;2023-02-12T06:10:41;15.20;74.20
25732;DHT22;13585;50.864;4.406;2023-02-12T06:13:07;15.20;74.20
25732;DHT22;13585;50.864;4.406;2023-02-12T06:15:35;15.20;74.20
25732;DHT22;13585;50.864;4.406;2023-02-12T06:18:01;15.20;74.10
25732;DHT22;13585;50.864;4.406;2023-02-12T06:20:26;15.20;74.10
25732;DHT22;13585;50.864;4.406;2023-02-12T06:22:52;15.20;74.10
25732;DHT22;13585;50.864;4.406;2023-02-12T06:25:20;15.20;74.00
25732;DHT22;13585;50.864;4.406;2023-02-12T06:27:46;15.20;74.00
25732;DHT22;13585;50.864;4.406;2023-02-12T06:30:12;15.20;74.00
25732;DHT22;13585;50.864;4.406;2023-02-12T06:32:38;15.20;74.00
25732;DHT22;13585;50.864;4.406;2023-02-12T06:35:04;15.20;74.00
25732;DHT22;13585;50.864;4.406;2023-02-12T06:37:29;15.20;73.90
25732;DHT22;13585;50.864;4.406;2023-02-12T06:39:57;15.20;73.90
25732;DHT22;13585;50.864;4.406;2023-02-12T06:42:22;15.20;73.90
25732;DHT22;13585;50.864;4.406;2023-02-12T06:44:48;15.20;73.90
25732;DHT22;13585;50.864;4.406;2023-02-12T06:47:13;15.20;73.90
25732;DHT22;13585;50.864;4.406;2023-02-12T06:49:39;15.20;74.00
25732;DHT22;13585;50.864;4.406;2023-02-12T06:52:05;15.20;73.90
25732;DHT22;13585;50.864;4.406;2023-02-12T06:54:30;15.20;73.90
25732;DHT22;13585;50.864;4.406;2023-02-12T06:56:56;15.20;73.90
25732;DHT22;13585;50.864;4.406;2023-02-12T06:59:21;15.20;74.00
25732;DHT22;13585;50.864;4.406;2023-02-12T07:01:47;15.20;74.00
25732;DHT22;13585;50.864;4.406;2023-02-12T07:04:13;15.20;74.00
25732;DHT22;13585;50.864;4.406;2023-02-12T07:06:39;15.20;74.00
25732;DHT22;13585;50.864;4.406;2023-02-12T07:09:05;15.20;74.00
25732;DHT22;13585;50.864;4.406;2023-02-12T07:11:33;15.20;73.90
25732;DHT22;13585;50.864;4.406;2023-02-12T07:13:59;15.20;74.00
25732;DHT22;13585;50.864;4.406;2023-02-12T07:16:25;15.20;74.00
25732;DHT22;13585;50.864;4.406;2023-02-12T07:18:51;15.20;73.90
25732;DHT22;13585;50.864;4.406;2023-02-12T07:21:17;15.20;73.90
25732;DHT22;13585;50.864;4.406;2023-02-12T07:23:50;15.20;73.90
25732;DHT22;13585;50.864;4.406;2023-02-12T07:26:16;15.20;74.00
25732;DHT22;13585;50.864;4.406;2023-02-12T07:28:42;15.20;73.90
25732;DHT22;13585;50.864;4.406;2023-02-12T07:31:08;15.20;73.90
25732;DHT22;13585;50.864;4.406;2023-02-12T07:33:35;15.30;73.90
25732;DHT22;13585;50.864;4.406;2023-02-12T07:36:02;15.30;74.00
25732;DHT22;13585;50.864;4.406;2023-02-12T07:38:29;15.30;74.00
25732;DHT22;13585;50.864;4.406;2023-02-12T07:40:54;15.30;74.00
25732;DHT22;13585;50.864;4.406;2023-02-12T07:43:23;15.30;74.00
25732;DHT22;13585;50.864;4.406;2023-02-12T07:45:49;15.30;74.00
25732;DHT22;13585;50.864;4.406;2023-02-12T07:48:14;15.30;74.00
25732;DHT22;13585;50.864;4.406;2023-02-12T07:50:40;15.30;74.00
25732;DHT22;13585;50.864;4.406;2023-02-12T07:53:05;15.30;74.00
25732;DHT22;13585;50.864;4.406;2023-02-12T07:55:31;15.30;74.00
25732;DHT22;13585;50.864;4.406;2023-02-12T07:57:57;15.30;74.00
25732;DHT22;13585;50.864;4.406;2023-02-12T08:00:22;15.30;74.00
25732;DHT22;13585;50.864;4.406;2023-02-12T08:02:52;15.40;74.10
25732;DHT22;13585;50.864;4.406;2023-02-12T08:05:18;15.40;74.10
25732;DHT22;13585;50.864;4.406;2023-02-12T08:07:44;15.40;74.10
25732;DHT22;13585;50.864;4.406;2023-02-12T08:10:10;15.40;74.10
25732;DHT22;13585;50.864;4.406;2023-02-12T08:12:36;15.40;74.10
25732;DHT22;13585;50.864;4.406;2023-02-12T08:15:01;15.40;74.10
25732;DHT22;13585;50.864;4.406;2023-02-12T08:17:27;15.40;74.20
25732;DHT22;13585;50.864;4.406;2023-02-12T08:19:53;15.40;74.10
25732;DHT22;13585;50.864;4.406;2023-02-12T08:22:18;15.40;74.10
25732;DHT22;13585;50.864;4.406;2023-02-12T08:24:44;15.40;74.20
25732;DHT22;13585;50.864;4.406;2023-02-12T08:27:10;15.40;74.20
25732;DHT22;13585;50.864;4.406;2023-02-12T08:29:35;15.40;74.20
25732;DHT22;13585;50.864;4.406;2023-02-12T08:32:02;15.40;74.20
25732;DHT22;13585;50.864;4.406;2023-02-12T08:34:30;15.40;74.20
25732;DHT22;13585;50.864;4.406;2023-02-12T08:36:56;15.40;74.20
25732;DHT22;13585;50.864;4.406;2023-02-12T08:39:25;15.40;74.20
25732;DHT22;13585;50.864;4.406;2023-02-12T08:41:53;15.40;74.20
25732;DHT22;13585;50.864;4.406;2023-02-12T08:44:19;15.40;74.20
25732;DHT22;13585;50.864;4.406;2023-02-12T08:46:47;15.40;74.20
25732;DHT22;13585;50.864;4.406;2023-02-12T08:49:15;15.40;74.20
25732;DHT22;13585;50.864;4.406;2023-02-12T08:51:43;15.50;74.30
25732;DHT22;13585;50.864;4.406;2023-02-12T08:54:12;15.40;74.20
25732;DHT22;13585;50.864;4.406;2023-02-12T08:56:38;15.40;74.20
25732;DHT22;13585;50.864;4.406;2023-02-12T08:59:05;15.50;74.20
25732;DHT22;13585;50.864;4.406;2023-02-12T09:01:35;15.50;74.20
25732;DHT22;13585;50.864;4.406;2023-02-12T09:04:03;15.40;74.20
25732;DHT22;13585;50.864;4.406;2023-02-12T09:06:31;15.50;74.20
25732;DHT22;13585;50.864;4.406;2023-02-12T09:08:57;15.50;74.20
25732;DHT22;13585;50.864;4.406;2023-02-12T09:11:25;15.50;74.20
25732;DHT22;13585;50.864;4.406;2023-02-12T09:13:58;15.40;74.20
25732;DHT22;13585;50.864;4.406;2023-02-12T09:16:28;15.50;74.10
25732;DHT22;13585;50.864;4.406;2023-02-12T09:18:54;15.50;74.00
25732;DHT22;13585;50.864;4.406;2023-02-12T09:21:20;15.50;74.10
25732;DHT22;13585;50.864;4.406;2023-02-12T09:23:46;15.50;74.20
25732;DHT22;13585;50.864;4.406;2023-02-12T09:26:15;15.50;74.30
25732;DHT22;13585;50.864;4.406;2023-02-12T09:28:41;15.50;74.30
25732;DHT22;13585;50.864;4.406;2023-02-12T09:31:10;15.50;74.30
25732;DHT22;13585;50.864;4.406;2023-02-12T09:33:37;15.40;74.20
25732;DHT22;13585;50.864;4.406;2023-02-12T09:36:05;15.40;74.20
25732;DHT22;13585;50.864;4.406;2023-02-12T09:38:31;15.50;74.30
25732;DHT22;13585;50.864;4.406;2023-02-12T09:43:38;15.40;74.30
25732;DHT22;13585;50.864;4.406;2023-02-12T09:46:18;15.50;74.30
25732;DHT22;13585;50.864;4.406;2023-02-12T09:51:22;15.50;74.40
25732;DHT22;13585;50.864;4.406;2023-02-12T09:54:10;15.50;74.40
25732;DHT22;13585;50.864;4.406;2023-02-12T09:56:41;15.50;74.50
25732;DHT22;13585;50.864;4.406;2023-02-12T09:59:10;15.50;74.50
25732;DHT22;13585;50.864;4.406;2023-02-12T10:01:39;15.50;74.50
25732;DHT22;13585;50.864;4.406;2023-02-12T10:04:05;15.40;74.50
25732;DHT22;13585;50.864;4.406;2023-02-12T10:06:36;15.50;74.50
25732;DHT22;13585;50.864;4.406;2023-02-12T10:12:34;15.50;74.70
25732;DHT22;13585;50.864;4.406;2023-02-12T10:18:00;15.50;74.50
25732;DHT22;13585;50.864;4.406;2023-02-12T10:25:48;15.50;75.00
25732;DHT22;13585;50.864;4.406;2023-02-12T10:31:02;15.50;75.00
25732;DHT22;13585;50.864;4.406;2023-02-12T10:33:36;15.50;75.00
25732;DHT22;13585;50.864;4.406;2023-02-12T10:36:25;15.50;75.00
25732;DHT22;13585;50.864;4.406;2023-02-12T10:39:11;15.50;75.00
25732;DHT22;13585;50.864;4.406;2023-02-12T10:42:01;15.50;75.00
25732;DHT22;13585;50.864;4.406;2023-02-12T10:44:28;15.50;75.00
25732;DHT22;13585;50.864;4.406;2023-02-12T10:46:54;15.50;74.90
25732;DHT22;13585;50.864;4.406;2023-02-12T10:49:20;15.50;75.00
25732;DHT22;13585;50.864;4.406;2023-02-12T10:54:32;15.50;75.00
25732;DHT22;13585;50.864;4.406;2023-02-12T10:56:59;15.40;75.00
25732;DHT22;13585;50.864;4.406;2023-02-12T10:59:30;15.50;74.90
25732;DHT22;13585;50.864;4.406;2023-02-12T11:01:56;15.50;74.90
25732;DHT22;13585;50.864;4.406;2023-02-12T11:04:27;15.50;74.90
25732;DHT22;13585;50.864;4.406;2023-02-12T11:07:03;15.40;74.90
25732;DHT22;13585;50.864;4.406;2023-02-12T11:09:40;15.50;75.00
25732;DHT22;13585;50.864;4.406;2023-02-12T11:15:12;15.50;74.80
25732;DHT22;13585;50.864;4.406;2023-02-12T11:17:44;15.50;74.80
25732;DHT22;13585;50.864;4.406;2023-02-12T11:22:55;15.50;74.70
25732;DHT22;13585;50.864;4.406;2023-02-12T11:25:23;15.50;74.60
25732;DHT22;13585;50.864;4.406;2023-02-12T11:28:14;15.50;74.60
25732;DHT22;13585;50.864;4.406;2023-02-12T11:33:21;15.50;74.80
25732;DHT22;13585;50.864;4.406;2023-02-12T11:35:55;15.50;74.70
25732;DHT22;13585;50.864;4.406;2023-02-12T11:38:48;15.50;74.80
25732;DHT22;13585;50.864;4.406;2023-02-12T11:41:33;15.50;74.80
25732;DHT22;13585;50.864;4.406;2023-02-12T11:44:12;15.40;74.70
25732;DHT22;13585;50.864;4.406;2023-02-12T11:46:49;15.50;74.50
25732;DHT22;13585;50.864;4.406;2023-02-12T11:49:26;15.50;74.50
25732;DHT22;13585;50.864;4.406;2023-02-12T11:51:53;15.50;74.60
25732;DHT22;13585;50.864;4.406;2023-02-12T11:54:23;15.50;74.60
25732;DHT22;13585;50.864;4.406;2023-02-12T11:56:50;15.50;74.50
25732;DHT22;13585;50.864;4.406;2023-02-12T12:01:50;15.50;74.60
25732;DHT22;13585;50.864;4.406;2023-02-12T12:04:18;15.50;74.50
25732;DHT22;13585;50.864;4.406;2023-02-12T12:06:55;15.50;74.50
25732;DHT22;13585;50.864;4.406;2023-02-12T12:15:28;15.50;74.30
25732;DHT22;13585;50.864;4.406;2023-02-12T12:18:31;15.50;74.40
25732;DHT22;13585;50.864;4.406;2023-02-12T12:24:16;15.40;74.20
25732;DHT22;13585;50.864;4.406;2023-02-12T12:26:48;15.50;74.20
25732;DHT22;13585;50.864;4.406;2023-02-12T12:29:45;15.40;74.10
25732;DHT22;13585;50.864;4.406;2023-02-12T12:32:15;15.40;74.20
25732;DHT22;13585;50.864;4.406;2023-02-12T12:34:42;15.40;74.00
25732;DHT22;13585;50.864;4.406;2023-02-12T12:37:36;15.40;74.00
25732;DHT22;13585;50.864;4.406;2023-02-12T12:40:28;15.40;74.10
25732;DHT22;13585;50.864;4.406;2023-02-12T12:43:00;15.40;74.00
25732;DHT22;13585;50.864;4.406;2023-02-12T12:50:56;15.40;73.90
25732;DHT22;13585;50.864;4.406;2023-02-12T13:07:24;15.40;73.70
25732;DHT22;13585;50.864;4.406;2023-02-12T13:10:27;15.40;73.70
25732;DHT22;13585;50.864;4.406;2023-02-12T13:13:04;15.40;73.70
25732;DHT22;13585;50.864;4.406;2023-02-12T13:15:59;15.40;73.60
25732;DHT22;13585;50.864;4.406;2023-02-12T13:18:57;15.50;73.70
25732;DHT22;13585;50.864;4.406;2023-02-12T13:21:39;15.40;73.60
25732;DHT22;13585;50.864;4.406;2023-02-12T13:27:25;15.40;73.50
25732;DHT22;13585;50.864;4.406;2023-02-12T13:32:41;15.40;73.40
25732;DHT22;13585;50.864;4.406;2023-02-12T13:35:17;15.40;73.40
25732;DHT22;13585;50.864;4.406;2023-02-12T13:37:49;15.40;73.40
25732;DHT22;13585;50.864;4.406;2023-02-12T13:40:19;15.40;73.30
25732;DHT22;13585;50.864;4.406;2023-02-12T14:02:23;15.40;73.10
25732;DHT22;13585;50.864;4.406;2023-02-12T14:04:57;15.40;73.00
25732;DHT22;13585;50.864;4.406;2023-02-12T14:07:42;15.40;73.00
25732;DHT22;13585;50.864;4.406;2023-02-12T14:12:48;15.40;72.90
25732;DHT22;13585;50.864;4.406;2023-02-12T14:15:32;15.40;72.80
25732;DHT22;13585;50.864;4.406;2023-02-12T14:20:37;15.40;72.80
25732;DHT22;13585;50.864;4.406;2023-02-12T14:23:27;15.40;72.80
25732;DHT22;13585;50.864;4.406;2023-02-12T14:33:52;15.40;72.70
25732;DHT22;13585;50.864;4.406;2023-02-12T14:36:38;15.40;72.50
25732;DHT22;13585;50.864;4.406;2023-02-12T14:41:52;15.40;72.50
25732;DHT22;13585;50.864;4.406;2023-02-12T14:46:53;15.40;72.50
25732;DHT22;13585;50.864;4.406;2023-02-12T14:54:50;15.40;72.40
25732;DHT22;13585;50.864;4.406;2023-02-12T14:57:37;15.40;72.40
25732;DHT22;13585;50.864;4.406;2023-02-12T15:00:26;15.40;72.30
25732;DHT22;13585;50.864;4.406;2023-02-12T15:05:37;15.40;72.30
25732;DHT22;13585;50.864;4.406;2023-02-12T15:08:18;15.40;72.20
25732;DHT22;13585;50.864;4.406;2023-02-12T15:10:53;15.40;72.20
25732;DHT22;13585;50.864;4.406;2023-02-12T15:16:21;15.40;72.20
25732;DHT22;13585;50.864;4.406;2023-02-12T15:18:57;15.40;72.10
25732;DHT22;13585;50.864;4.406;2023-02-12T15:21:27;15.40;72.00
25732;DHT22;13585;50.864;4.406;2023-02-12T15:26:28;15.40;72.00
25732;DHT22;13585;50.864;4.406;2023-02-12T15:28:55;15.40;72.00
25732;DHT22;13585;50.864;4.406;2023-02-12T15:31:28;15.40;72.00
25732;DHT22;13585;50.864;4.406;2023-02-12T15:33:57;15.40;72.00
25732;DHT22;13585;50.864;4.406;2023-02-12T15:36:24;15.40;72.00
25732;DHT22;13585;50.864;4.406;2023-02-12T15:38:58;15.40;72.10
25732;DHT22;13585;50.864;4.406;2023-02-12T15:41:39;15.40;72.00
25732;DHT22;13585;50.864;4.406;2023-02-12T15:44:28;15.40;71.90
25732;DHT22;13585;50.864;4.406;2023-02-12T15:47:10;15.40;72.00
25732;DHT22;13585;50.864;4.406;2023-02-12T15:49:37;15.40;72.00
25732;DHT22;13585;50.864;4.406;2023-02-12T15:52:26;15.40;71.80
25732;DHT22;13585;50.864;4.406;2023-02-12T15:54:59;15.40;72.00
25732;DHT22;13585;50.864;4.406;2023-02-12T15:57:25;15.40;71.80
25732;DHT22;13585;50.864;4.406;2023-02-12T15:59:53;15.40;71.80
25732;DHT22;13585;50.864;4.406;2023-02-12T16:02:30;15.40;71.80
25732;DHT22;13585;50.864;4.406;2023-02-12T16:04:58;15.40;71.90
25732;DHT22;13585;50.864;4.406;2023-02-12T16:07:25;15.40;71.80
25732;DHT22;13585;50.864;4.406;2023-02-12T16:09:53;15.40;71.80
25732;DHT22;13585;50.864;4.406;2023-02-12T16:12:22;15.40;71.80
25732;DHT22;13585;50.864;4.406;2023-02-12T16:14:53;15.40;71.80
25732;DHT22;13585;50.864;4.406;2023-02-12T16:19:54;15.40;71.80
25732;DHT22;13585;50.864;4.406;2023-02-12T16:22:24;15.40;71.70
25732;DHT22;13585;50.864;4.406;2023-02-12T16:24:53;15.40;71.70
25732;DHT22;13585;50.864;4.406;2023-02-12T16:27:32;15.40;71.70
25732;DHT22;13585;50.864;4.406;2023-02-12T16:30:01;15.40;71.70
25732;DHT22;13585;50.864;4.406;2023-02-12T16:32:41;15.40;71.60
25732;DHT22;13585;50.864;4.406;2023-02-12T16:42:35;15.40;71.60
25732;DHT22;13585;50.864;4.406;2023-02-12T16:45:00;15.40;71.50
25732;DHT22;13585;50.864;4.406;2023-02-12T16:47:26;15.40;71.50
25732;DHT22;13585;50.864;4.406;2023-02-12T16:49:58;15.40;71.50
25732;DHT22;13585;50.864;4.406;2023-02-12T16:52:37;15.40;71.50
25732;DHT22;13585;50.864;4.406;2023-02-12T16:55:14;15.40;71.50
25732;DHT22;13585;50.864;4.406;2023-02-12T16:57:40;15.40;72.10
25732;DHT22;13585;50.864;4.406;2023-02-12T17:00:07;15.40;71.30
25732;DHT22;13585;50.864;4.406;2023-02-12T17:02:33;15.40;71.40
25732;DHT22;13585;50.864;4.406;2023-02-12T17:05:01;15.40;71.30
25732;DHT22;13585;50.864;4.406;2023-02-12T17:07:30;15.40;71.30
25732;DHT22;13585;50.864;4.406;2023-02-12T17:09:56;15.40;71.20
25732;DHT22;13585;50.864;4.406;2023-02-12T17:12:22;15.40;71.20
25732;DHT22;13585;50.864;4.406;2023-02-12T17:14:48;15.40;71.20
25732;DHT22;13585;50.864;4.406;2023-02-12T17:17:13;15.40;71.10
25732;DHT22;13585;50.864;4.406;2023-02-12T17:19:39;15.40;71.10
25732;DHT22;13585;50.864;4.406;2023-02-12T17:22:06;15.40;71.10
25732;DHT22;13585;50.864;4.406;2023-02-12T17:24:33;15.40;71.10
25732;DHT22;13585;50.864;4.406;2023-02-12T17:27:00;15.40;71.10
25732;DHT22;13585;50.864;4.406;2023-02-12T17:29:27;15.40;71.00
25732;DHT22;13585;50.864;4.406;2023-02-12T17:31:53;15.40;71.00
25732;DHT22;13585;50.864;4.406;2023-02-12T17:34:20;15.40;71.00
25732;DHT22;13585;50.864;4.406;2023-02-12T17:36:46;15.40;70.90
25732;DHT22;13585;50.864;4.406;2023-02-12T17:39:13;15.40;70.90
25732;DHT22;13585;50.864;4.406;2023-02-12T17:41:39;15.40;70.90
25732;DHT22;13585;50.864;4.406;2023-02-12T17:44:05;15.30;70.80
25732;DHT22;13585;50.864;4.406;2023-02-12T17:46:31;15.40;70.80
25732;DHT22;13585;50.864;4.406;2023-02-12T17:48:58;15.40;70.80
25732;DHT22;13585;50.864;4.406;2023-02-12T17:51:24;15.40;70.70
25732;DHT22;13585;50.864;4.406;2023-02-12T17:53:50;15.40;70.70
25732;DHT22;13585;50.864;4.406;2023-02-12T17:56:18;15.40;70.70
25732;DHT22;13585;50.864;4.406;2023-02-12T17:58:45;15.40;70.70
25732;DHT22;13585;50.864;4.406;2023-02-12T18:01:13;15.40;70.70
25732;DHT22;13585;50.864;4.406;2023-02-12T18:03:39;15.40;70.70
25732;DHT22;13585;50.864;4.406;2023-02-12T18:06:06;15.40;70.70
25732;DHT22;13585;50.864;4.406;2023-02-12T18:08:31;15.40;70.80
25732;DHT22;13585;50.864;4.406;2023-02-12T18:10:58;15.40;70.80
25732;DHT22;13585;50.864;4.406;2023-02-12T18:13:24;15.40;70.90
25732;DHT22;13585;50.864;4.406;2023-02-12T18:15:50;15.40;70.90
25732;DHT22;13585;50.864;4.406;2023-02-12T18:18:16;15.40;70.90
25732;DHT22;13585;50.864;4.406;2023-02-12T18:20:42;15.40;70.90
25732;DHT22;13585;50.864;4.406;2023-02-12T18:23:09;15.50;71.00
25732;DHT22;13585;50.864;4.406;2023-02-12T18:25:41;15.50;71.00
25732;DHT22;13585;50.864;4.406;2023-02-12T18:28:07;15.50;71.10
25732;DHT22;13585;50.864;4.406;2023-02-12T18:30:34;15.50;71.10
25732;DHT22;13585;50.864;4.406;2023-02-12T18:33:04;15.50;71.20
25732;DHT22;13585;50.864;4.406;2023-02-12T18:35:30;15.50;71.20
25732;DHT22;13585;50.864;4.406;2023-02-12T18:37:56;15.50;71.20
25732;DHT22;13585;50.864;4.406;2023-02-12T18:40:22;15.50;71.30
25732;DHT22;13585;50.864;4.406;2023-02-12T18:42:49;15.50;71.30